createdAt,value
2023-05-15T00:00:01.131Z,0.00
2023-05-15T00:10:01.180Z,0.00
2023-05-15T00:20:01.211Z,0.00
2023-05-15T00:30:01.165Z,0.00
2023-05-15T00:40:01.080Z,0.00
2023-05-15T00:50:01.199Z,0.00
2023-05-15T01:00:01.152Z,0.00
2023-05-15T01:10:01.173Z,0.00
2023-05-15T01:20:00.522Z,0.00
2023-05-15T01:30:01.221Z,0.00
2023-05-15T01:40:01.115Z,0.00
2023-05-15T01:50:01.147Z,0.00
2023-05-15T02:00:01.166Z,0.00
2023-05-15T02:10:01.218Z,0.00
2023-05-15T02:20:01.143Z,0.00
2023-05-15T02:30:01.222Z,0.11
2023-05-15T02:40:01.111Z,1.02
2023-05-15T02:50:01.211Z,4.64
2023-05-15T03:00:01.222Z,17.50
2023-05-15T03:10:01.215Z,23.33
2023-05-15T03:20:01.130Z,117.50
2023-05-15T03:30:01.164Z,221.67
2023-05-15T03:40:01.135Z,178.33
2023-05-15T03:50:01.171Z,255.00
2023-05-15T04:00:01.170Z,656.25
2023-05-15T04:10:01.193Z,385.00
2023-05-15T04:20:01.167Z,446.67
2023-05-15T04:30:01.179Z,521.67
2023-05-15T04:40:01.153Z,1355.42
2023-05-15T04:50:01.168Z,1337.08
2023-05-15T05:00:01.160Z,1293.75
2023-05-15T05:10:01.165Z,1305.83
2023-05-15T05:20:01.114Z,715.00
2023-05-15T05:30:01.196Z,796.67
2023-05-15T05:40:01.206Z,866.67
2023-05-15T05:50:01.221Z,1847.92
2023-05-15T06:00:01.207Z,853.33
2023-05-15T06:10:01.194Z,790.00
2023-05-15T06:20:01.161Z,825.00
2023-05-15T06:30:01.154Z,1662.92
2023-05-15T06:40:01.157Z,2366.25
2023-05-15T06:50:01.165Z,2798.75
2023-05-15T07:00:02.334Z,3177.92
2023-05-15T07:20:01.127Z,5599.17
2023-05-15T07:40:01.200Z,5432.08
2023-05-15T07:50:01.176Z,5732.08
2023-05-15T08:00:01.210Z,4842.50
2023-05-15T08:20:01.121Z,5883.33
2023-05-15T08:30:01.215Z,6720.00
2023-05-15T08:40:01.089Z,7484.17
2023-05-15T08:50:01.231Z,4924.17
2023-05-15T09:00:01.197Z,3556.25
2023-05-15T09:10:01.154Z,4133.75
2023-05-15T09:20:01.174Z,4969.58
2023-05-15T09:30:01.206Z,5711.25
2023-05-15T09:40:01.201Z,5806.25
2023-05-15T09:50:01.193Z,6920.42
2023-05-15T10:00:01.161Z,7334.58
2023-05-15T10:10:01.208Z,8576.25
2023-05-15T10:20:01.164Z,9772.50
2023-05-15T10:30:01.209Z,8990.00
2023-05-15T10:40:01.141Z,8022.50
2023-05-15T10:50:01.174Z,3411.67
2023-05-15T11:00:01.122Z,6222.50
2023-05-15T11:10:01.223Z,2773.33
2023-05-15T11:20:01.191Z,8327.50
2023-05-15T11:30:01.210Z,10592.50
2023-05-15T11:40:01.170Z,10369.58
2023-05-15T11:50:01.204Z,28338.33
2023-05-15T12:00:01.138Z,23243.33
2023-05-15T12:10:01.222Z,33297.50
2023-05-15T12:20:01.209Z,32223.33
2023-05-15T12:30:01.196Z,30890.00
2023-05-15T12:40:01.113Z,21212.50
2023-05-15T12:50:01.217Z,17716.67
2023-05-15T13:00:01.163Z,40885.83
2023-05-15T13:10:01.203Z,36760.00
2023-05-15T13:20:01.096Z,39772.50
2023-05-15T13:30:01.157Z,19925.00
2023-05-15T13:40:01.116Z,12904.17
2023-05-15T13:50:01.140Z,4781.67
2023-05-15T14:00:01.214Z,5325.42
2023-05-15T14:10:01.242Z,7841.25
2023-05-15T14:20:00.431Z,9270.00
2023-05-15T14:30:01.203Z,9122.50
2023-05-15T14:40:01.182Z,12173.75
2023-05-15T15:00:01.126Z,14043.33
2023-05-15T15:10:01.153Z,11004.17
2023-05-15T15:20:01.194Z,11547.08
2023-05-15T15:30:01.201Z,11382.50
2023-05-15T15:40:01.147Z,14210.00
2023-05-15T15:50:01.233Z,7445.83
2023-05-15T16:00:01.159Z,11835.83
2023-05-15T16:10:11.303Z,6082.50
2023-05-15T16:20:01.222Z,2092.50
2023-05-15T16:30:00.638Z,960.00
2023-05-15T16:40:01.194Z,649.58
2023-05-15T16:50:01.134Z,825.00
2023-05-15T17:00:01.150Z,1832.08
2023-05-15T17:10:01.206Z,1013.33
2023-05-15T17:20:02.929Z,932.92
2023-05-15T17:30:01.197Z,726.67
2023-05-15T17:40:01.180Z,1134.58
2023-05-15T17:50:01.179Z,443.33
2023-05-15T18:00:00.398Z,753.75
2023-05-15T18:10:01.142Z,283.33
2023-05-15T18:20:01.204Z,285.00
2023-05-15T18:30:01.155Z,235.00
2023-05-15T18:40:01.193Z,186.67
2023-05-15T19:00:01.158Z,20.83
2023-05-15T19:10:01.223Z,5.77
2023-05-15T19:20:01.144Z,2.04
2023-05-15T19:30:01.159Z,0.68
2023-05-15T19:40:01.314Z,0.23
2023-05-15T19:50:01.341Z,0.00
2023-05-15T20:00:01.226Z,0.00
2023-05-15T20:10:01.236Z,0.00
2023-05-15T20:20:01.153Z,0.00
2023-05-15T20:30:01.189Z,0.00
2023-05-15T20:40:01.237Z,0.00
2023-05-15T21:00:01.128Z,0.00
2023-05-15T21:10:01.222Z,0.00
2023-05-15T21:20:01.132Z,0.00
2023-05-15T21:30:01.230Z,0.00
2023-05-15T21:40:01.222Z,0.00
2023-05-15T21:50:01.130Z,0.00
2023-05-15T22:00:01.221Z,0.00
2023-05-15T22:10:01.189Z,0.00
2023-05-15T22:20:01.138Z,0.00
2023-05-15T22:40:01.134Z,0.00
2023-05-15T22:50:01.438Z,0.00
2023-05-15T23:00:01.190Z,0.00
2023-05-15T23:10:01.120Z,0.00
2023-05-15T23:20:01.162Z,0.00
2023-05-15T23:30:01.280Z,0.00
2023-05-15T23:40:01.159Z,0.00
2023-05-15T23:50:01.298Z,0.00
